Time;durP1;ratioP1;P1;durP2;ratioP2;P2;SDS_P1;SDS_P2;PMS_P1;PMS_P2;Temp;Humidity;BMP_temperature;BMP_pressure;BME280_temperature;BME280_humidity;BME280_pressure;Samples;Min_cycle;Max_cycle;Signal;HPM_P1;HPM_P2
2022/12/14 00:01:32;;;;;;;17.58;9.13;;;;;;;;;;5060403;28;20044;-76
2022/12/14 00:04:17;;;;;;;20.65;10.52;;;;;;;;;;5058452;28;20060;-78
2022/12/14 00:07:02;;;;;;;19.50;8.40;;;;;;;;;;5067920;28;20360;-76
2022/12/14 00:09:47;;;;;;;19.35;9.55;;;;;;;;;;5049327;28;20028;-73
2022/12/14 00:12:33;;;;;;;18.15;10.07;;;;;;;;;;5045872;28;20047;-77
2022/12/14 00:15:18;;;;;;;18.58;10.32;;;;;;;;;;5076423;28;20471;-79
2022/12/14 00:18:04;;;;;;;18.75;9.40;;;;;;;;;;5036038;28;20028;-77
2022/12/14 00:20:49;;;;;;;15.73;9.27;;;;;;;;;;5060607;28;20035;-76
2022/12/14 00:23:35;;;;;;;20.15;8.90;;;;;;;;;;5064933;28;20038;-76
2022/12/14 00:26:25;;;;;;;14.57;9.23;;;;;;;;;;5055888;28;20017;-77
2022/12/14 00:29:10;;;;;;;18.85;9.95;;;;;;;;;;5063363;28;20032;-74
2022/12/14 00:31:55;;;;;;;17.10;9.38;;;;;;;;;;5058267;28;20521;-72
2022/12/14 00:34:41;;;;;;;18.90;10.45;;;;;;;;;;5068421;28;20403;-74
2022/12/14 00:37:26;;;;;;;24.80;10.35;;;;;;;;;;5050365;28;20020;-73
2022/12/14 00:40:11;;;;;;;17.98;9.68;;;;;;;;;;5044849;28;20028;-74
2022/12/14 00:42:56;;;;;;;16.05;8.57;;;;;;;;;;5050442;28;20035;-72
2022/12/14 00:45:45;;;;;;;20.15;10.18;;;;;;;;;;5050883;28;20589;-73
2022/12/14 00:48:30;;;;;;;16.35;9.50;;;;;;;;;;5057029;28;20021;-76
2022/12/14 00:51:17;;;;;;;19.33;9.18;;;;;;;;;;5053771;28;20476;-76
2022/12/14 00:54:02;;;;;;;17.05;9.55;;;;;;;;;;5045775;28;20064;-76
2022/12/14 00:56:47;;;;;;;18.15;9.18;;;;;;;;;;5058932;28;20020;-76
2022/12/14 00:59:32;;;;;;;18.50;9.10;;;;;;;;;;5054404;28;20043;-75
2022/12/14 01:02:18;;;;;;;18.92;8.68;;;;;;;;;;5037126;28;20060;-77
2022/12/14 01:05:03;;;;;;;19.38;10.43;;;;;;;;;;5051889;28;20032;-76
2022/12/14 01:07:48;;;;;;;18.80;9.65;;;;;;;;;;5042109;28;20108;-77
2022/12/14 01:10:37;;;;;;;17.65;9.77;;;;;;;;;;5043863;28;20556;-77
2022/12/14 01:13:22;;;;;;;20.63;12.05;;;;;;;;;;5050239;28;20025;-77
2022/12/14 01:16:09;;;;;;;19.25;11.20;;;;;;;;;;5029424;28;20036;-78
2022/12/14 01:18:54;;;;;;;19.33;9.18;;;;;;;;;;5053321;28;20020;-77
2022/12/14 01:21:39;;;;;;;18.45;9.05;;;;;;;;;;5063690;28;20047;-77
2022/12/14 01:24:25;;;;;;;17.08;9.40;;;;;;;;;;5026901;28;20029;-70
2022/12/14 01:27:10;;;;;;;21.90;11.07;;;;;;;;;;5038657;28;20037;-71
2022/12/14 01:29:55;;;;;;;17.67;9.40;;;;;;;;;;5061433;28;20058;-72
2022/12/14 01:32:40;;;;;;;18.67;9.68;;;;;;;;;;5050822;28;20022;-71
2022/12/14 01:35:25;;;;;;;18.70;10.38;;;;;;;;;;5049979;28;20029;-71
2022/12/14 01:38:11;;;;;;;18.30;10.18;;;;;;;;;;5039303;28;20074;-71
2022/12/14 01:40:56;;;;;;;16.95;9.32;;;;;;;;;;5061140;28;20021;-70
2022/12/14 01:43:44;;;;;;;18.15;8.32;;;;;;;;;;5061519;28;20036;-74
2022/12/14 01:46:32;;;;;;;18.25;9.43;;;;;;;;;;5042720;28;20492;-73
2022/12/14 01:49:21;;;;;;;19.15;10.57;;;;;;;;;;5051637;28;20028;-72
2022/12/14 01:52:16;;;;;;;22.35;9.77;;;;;;;;;;5050730;28;20420;-72
2022/12/14 01:55:05;;;;;;;19.42;9.88;;;;;;;;;;5044786;28;20036;-73
2022/12/14 01:57:53;;;;;;;19.38;10.20;;;;;;;;;;5049044;28;20025;-75
2022/12/14 02:00:39;;;;;;;18.90;10.00;;;;;;;;;;5052559;28;20029;-77
2022/12/14 02:03:26;;;;;;;21.00;10.10;;;;;;;;;;5047423;28;20077;-76
2022/12/14 02:06:16;;;;;;;21.13;10.77;;;;;;;;;;5048903;28;20025;-78
2022/12/14 02:09:01;;;;;;;;;;;;;;;;;;5043057;28;20043;-76
2022/12/14 02:11:58;;;;;;;17.05;8.73;;;;;;;;;;5051963;28;20502;-77
2022/12/14 02:14:44;;;;;;;15.77;9.05;;;;;;;;;;5048984;28;20116;-77
2022/12/14 02:17:29;;;;;;;18.63;10.55;;;;;;;;;;5053842;28;20033;-72
2022/12/14 02:20:15;;;;;;;19.55;9.90;;;;;;;;;;5046175;28;20021;-78
2022/12/14 02:23:09;;;;;;;16.83;9.20;;;;;;;;;;5037312;28;20017;-74
2022/12/14 02:26:16;;;;;;;16.67;8.68;;;;;;;;;;5061037;28;20459;-75
2022/12/14 02:29:02;;;;;;;18.85;9.90;;;;;;;;;;5059758;28;20036;-74
2022/12/14 02:32:02;;;;;;;17.48;10.40;;;;;;;;;;5055015;28;20016;-75
2022/12/14 02:34:56;;;;;;;19.13;10.82;;;;;;;;;;5049053;28;20640;-75
2022/12/14 02:38:01;;;;;;;18.40;9.82;;;;;;;;;;5050712;28;20064;-73
2022/12/14 02:40:49;;;;;;;17.88;10.25;;;;;;;;;;5045388;28;20025;-73
2022/12/14 02:43:46;;;;;;;17.92;8.88;;;;;;;;;;5049067;28;20029;-72
2022/12/14 02:46:34;;;;;;;16.40;9.27;;;;;;;;;;5029633;28;20109;-71
2022/12/14 02:49:20;;;;;;;16.90;10.18;;;;;;;;;;5045714;28;20535;-72
2022/12/14 02:52:09;;;;;;;19.98;10.68;;;;;;;;;;5052662;28;20119;-72
2022/12/14 02:54:54;;;;;;;;;;;;;;;;;;5037432;28;20025;-72
2022/12/14 02:57:43;;;;;;;17.55;9.80;;;;;;;;;;5067082;28;20549;-74
2022/12/14 03:00:31;;;;;;;21.27;9.97;;;;;;;;;;5060619;28;20036;-73
2022/12/14 03:03:16;;;;;;;16.10;9.00;;;;;;;;;;5053027;28;20174;-73
2022/12/14 03:06:03;;;;;;;16.20;9.18;;;;;;;;;;5041733;28;20085;-74
2022/12/14 03:08:48;;;;;;;17.77;9.52;;;;;;;;;;5035500;28;20032;-74
2022/12/14 03:11:41;;;;;;;18.08;9.32;;;;;;;;;;5039641;28;20086;-72
2022/12/14 03:14:30;;;;;;;18.83;10.40;;;;;;;;;;5052167;28;20367;-73
2022/12/14 03:17:20;;;;;;;16.45;9.73;;;;;;;;;;5055807;28;20158;-73
2022/12/14 03:20:06;;;;;;;17.48;9.45;;;;;;;;;;5050040;28;20093;-74
2022/12/14 03:22:56;;;;;;;15.02;8.88;;;;;;;;;;5046937;28;20500;-74
2022/12/14 03:25:42;;;;;;;19.13;10.35;;;;;;;;;;5056798;28;20496;-75
2022/12/14 03:28:30;;;;;;;21.15;10.85;;;;;;;;;;5049254;28;20049;-76
2022/12/14 03:31:18;;;;;;;18.85;10.55;;;;;;;;;;5056640;28;20488;-75
2022/12/14 03:34:07;;;;;;;21.02;10.82;;;;;;;;;;5062104;28;20036;-73
2022/12/14 03:36:59;;;;;;;18.08;10.02;;;;;;;;;;5049008;28;20407;-74
2022/12/14 03:39:45;;;;;;;17.55;10.00;;;;;;;;;;5050537;28;20033;-73
2022/12/14 03:42:37;;;;;;;20.45;11.80;;;;;;;;;;5050953;28;20033;-73
2022/12/14 03:45:24;;;;;;;19.10;11.25;;;;;;;;;;5041985;28;20483;-77
2022/12/14 03:48:18;;;;;;;18.92;11.40;;;;;;;;;;5064525;28;20037;-74
2022/12/14 03:51:03;;;;;;;18.13;10.48;;;;;;;;;;5053180;28;20021;-72
2022/12/14 03:53:56;;;;;;;20.55;10.80;;;;;;;;;;5055920;28;20380;-75
2022/12/14 03:56:57;;;;;;;29.38;10.75;;;;;;;;;;5041070;28;20423;-74
2022/12/14 03:59:49;;;;;;;17.13;10.77;;;;;;;;;;5055781;28;20028;-74
2022/12/14 04:02:39;;;;;;;20.80;11.15;;;;;;;;;;5061864;28;20049;-73
2022/12/14 04:05:38;;;;;;;18.75;11.27;;;;;;;;;;5051052;28;20108;-73
2022/12/14 04:08:33;;;;;;;20.00;10.73;;;;;;;;;;5065280;28;20491;-73
2022/12/14 04:20:39;;;;;;;19.13;12.15;;;;;;;;;;5050442;28;20025;-70
2022/12/14 04:26:35;;;;;;;22.65;11.05;;;;;;;;;;5058345;28;20366;-76
2022/12/14 04:32:30;;;;;;;22.25;12.10;;;;;;;;;;5055746;28;20227;-74
2022/12/14 04:35:24;;;;;;;21.95;11.45;;;;;;;;;;5043539;28;20025;-74
2022/12/14 04:38:13;;;;;;;17.50;10.90;;;;;;;;;;5044190;28;20033;-75
2022/12/14 04:41:02;;;;;;;19.38;10.75;;;;;;;;;;5023424;28;20025;-75
2022/12/14 04:43:50;;;;;;;23.17;10.48;;;;;;;;;;5055252;28;20627;-74
2022/12/14 04:46:36;;;;;;;18.63;12.10;;;;;;;;;;5049211;28;20024;-75
2022/12/14 04:49:25;;;;;;;18.23;11.00;;;;;;;;;;5050341;28;20060;-75
2022/12/14 04:52:16;;;;;;;21.88;11.60;;;;;;;;;;5049495;28;20083;-77
2022/12/14 04:55:06;;;;;;;19.70;11.23;;;;;;;;;;5046297;28;20139;-75
2022/12/14 04:57:57;;;;;;;18.73;10.88;;;;;;;;;;5051057;28;20056;-77
2022/12/14 05:00:51;;;;;;;19.45;10.93;;;;;;;;;;5048109;28;20041;-78
2022/12/14 05:03:57;;;;;;;21.63;12.02;;;;;;;;;;5044185;28;20270;-72
2022/12/14 05:06:51;;;;;;;21.88;12.27;;;;;;;;;;5047189;28;20588;-77
2022/12/14 05:09:36;;;;;;;22.25;11.75;;;;;;;;;;5052451;28;20024;-77
2022/12/14 05:12:27;;;;;;;21.20;12.43;;;;;;;;;;5061232;28;20033;-78
2022/12/14 05:15:14;;;;;;;21.95;12.43;;;;;;;;;;5040618;28;20060;-76
2022/12/14 05:18:03;;;;;;;22.58;11.82;;;;;;;;;;5053842;28;20041;-76
2022/12/14 05:20:49;;;;;;;19.40;11.55;;;;;;;;;;5043574;28;20041;-71
2022/12/14 05:23:34;;;;;;;19.80;11.73;;;;;;;;;;5028658;28;20032;-71
2022/12/14 05:26:19;;;;;;;23.75;12.32;;;;;;;;;;5063684;28;20486;-72
2022/12/14 05:29:04;;;;;;;20.50;10.80;;;;;;;;;;5048140;28;20051;-74
2022/12/14 05:31:50;;;;;;;20.63;11.35;;;;;;;;;;5051374;28;20012;-71
2022/12/14 05:34:36;;;;;;;21.95;13.18;;;;;;;;;;5048504;28;20064;-72
2022/12/14 05:37:21;;;;;;;20.30;11.50;;;;;;;;;;5049868;28;20040;-71
2022/12/14 05:40:06;;;;;;;20.00;11.88;;;;;;;;;;5044964;28;20128;-73
2022/12/14 05:43:02;;;;;;;23.15;12.38;;;;;;;;;;5046059;28;20060;-73
2022/12/14 05:45:47;;;;;;;17.80;11.18;;;;;;;;;;5058088;28;20048;-73
2022/12/14 05:48:32;;;;;;;23.88;13.38;;;;;;;;;;5050721;28;20486;-73
2022/12/14 05:51:18;;;;;;;20.83;11.15;;;;;;;;;;5059213;28;20028;-73
2022/12/14 05:54:04;;;;;;;21.95;12.35;;;;;;;;;;5051685;28;20111;-73
2022/12/14 05:56:49;;;;;;;21.35;12.57;;;;;;;;;;5048132;28;20070;-78
2022/12/14 05:59:34;;;;;;;22.83;12.52;;;;;;;;;;5049021;28;20028;-73
2022/12/14 06:02:19;;;;;;;22.85;12.90;;;;;;;;;;5049435;28;20045;-76
2022/12/14 06:05:05;;;;;;;23.33;13.43;;;;;;;;;;5049829;28;20033;-75
2022/12/14 06:07:50;;;;;;;23.02;13.95;;;;;;;;;;5056330;28;20224;-78
2022/12/14 06:10:35;;;;;;;19.92;11.32;;;;;;;;;;5050242;28;20033;-75
2022/12/14 06:13:20;;;;;;;21.88;13.70;;;;;;;;;;5047499;28;20033;-74
2022/12/14 06:16:06;;;;;;;23.98;13.75;;;;;;;;;;5053766;28;20414;-75
2022/12/14 06:18:53;;;;;;;22.52;13.65;;;;;;;;;;5048709;28;20049;-75
2022/12/14 06:21:39;;;;;;;21.58;12.75;;;;;;;;;;5058462;28;20028;-74
2022/12/14 06:24:24;;;;;;;24.30;14.68;;;;;;;;;;5051944;28;20032;-76
2022/12/14 06:27:09;;;;;;;21.08;13.63;;;;;;;;;;5051273;28;20527;-73
2022/12/14 06:29:55;;;;;;;20.73;12.88;;;;;;;;;;5050317;28;20037;-74
2022/12/14 06:32:40;;;;;;;23.88;14.18;;;;;;;;;;5056676;28;20032;-75
2022/12/14 06:35:25;;;;;;;23.08;14.40;;;;;;;;;;5058524;28;20036;-74
2022/12/14 06:38:12;;;;;;;26.63;15.02;;;;;;;;;;5037095;28;20029;-74
2022/12/14 06:40:57;;;;;;;22.90;13.43;;;;;;;;;;5065679;28;20070;-76
2022/12/14 06:43:42;;;;;;;23.10;13.23;;;;;;;;;;5058498;28;20123;-76
2022/12/14 06:46:28;;;;;;;26.15;14.50;;;;;;;;;;5045209;28;20459;-76
2022/12/14 06:49:14;;;;;;;25.42;15.05;;;;;;;;;;5060549;28;20029;-74
2022/12/14 06:51:59;;;;;;;22.40;13.57;;;;;;;;;;5060320;28;20559;-75
2022/12/14 06:54:45;;;;;;;25.52;14.88;;;;;;;;;;5058313;28;20098;-74
2022/12/14 06:57:30;;;;;;;26.30;16.25;;;;;;;;;;5038431;28;20028;-74
2022/12/14 07:00:16;;;;;;;24.58;14.30;;;;;;;;;;5032550;28;20059;-71
2022/12/14 07:03:02;;;;;;;24.42;14.48;;;;;;;;;;5038858;28;20122;-75
2022/12/14 07:05:47;;;;;;;27.40;14.88;;;;;;;;;;5049311;28;20017;-72
2022/12/14 07:08:33;;;;;;;27.08;15.05;;;;;;;;;;5051892;28;20528;-72
2022/12/14 07:11:19;;;;;;;27.67;15.30;;;;;;;;;;5048405;28;20033;-74
2022/12/14 07:14:05;;;;;;;24.25;14.20;;;;;;;;;;5054328;28;20491;-73
2022/12/14 07:16:51;;;;;;;29.33;15.40;;;;;;;;;;5047568;28;20044;-75
2022/12/14 07:19:37;;;;;;;26.17;14.82;;;;;;;;;;5048312;28;20028;-73
2022/12/14 07:22:22;;;;;;;30.73;16.83;;;;;;;;;;5047918;28;20052;-75
2022/12/14 07:25:07;;;;;;;26.67;15.85;;;;;;;;;;5047174;28;20253;-74
2022/12/14 07:27:53;;;;;;;33.10;17.55;;;;;;;;;;5049751;28;20097;-74
2022/12/14 07:30:38;;;;;;;30.17;16.10;;;;;;;;;;5046413;28;20522;-72
2022/12/14 07:33:23;;;;;;;30.65;17.55;;;;;;;;;;5034187;28;20033;-75
2022/12/14 07:36:10;;;;;;;30.05;16.13;;;;;;;;;;5043730;28;20476;-72
2022/12/14 07:38:55;;;;;;;26.70;15.93;;;;;;;;;;5047928;28;20036;-74
2022/12/14 07:41:41;;;;;;;27.05;15.45;;;;;;;;;;5033352;28;20086;-73
2022/12/14 07:44:26;;;;;;;28.15;15.82;;;;;;;;;;5034503;28;20216;-71
2022/12/14 07:47:12;;;;;;;25.02;15.35;;;;;;;;;;5047867;28;20032;-76
2022/12/14 07:49:57;;;;;;;27.25;17.25;;;;;;;;;;5046486;28;20095;-73
2022/12/14 07:52:42;;;;;;;32.67;16.27;;;;;;;;;;5044874;28;20037;-75
2022/12/14 07:55:28;;;;;;;30.13;16.20;;;;;;;;;;5046487;28;20024;-77
2022/12/14 07:58:14;;;;;;;28.42;16.23;;;;;;;;;;5031668;28;20507;-77
2022/12/14 08:01:06;;;;;;;25.58;14.55;;;;;;;;;;5046352;28;20024;-74
2022/12/14 08:03:56;;;;;;;25.48;16.02;;;;;;;;;;5048185;28;20049;-77
2022/12/14 08:06:41;;;;;;;28.88;15.77;;;;;;;;;;5049206;28;20025;-73
2022/12/14 08:09:26;;;;;;;27.80;15.93;;;;;;;;;;5034706;28;20150;-73
2022/12/14 08:12:11;;;;;;;28.45;16.63;;;;;;;;;;5035687;28;20021;-73
2022/12/14 08:14:57;;;;;;;26.27;15.70;;;;;;;;;;5048361;28;20029;-73
2022/12/14 08:17:42;;;;;;;26.92;14.75;;;;;;;;;;5055281;28;20468;-72
2022/12/14 08:20:27;;;;;;;30.75;16.38;;;;;;;;;;5043694;28;20837;-72
2022/12/14 08:23:12;;;;;;;26.60;16.30;;;;;;;;;;5034667;28;20516;-74
2022/12/14 08:25:58;;;;;;;29.15;16.50;;;;;;;;;;5034990;28;20373;-72
2022/12/14 08:28:44;;;;;;;30.13;17.00;;;;;;;;;;5050853;28;20036;-78
2022/12/14 08:31:29;;;;;;;28.73;16.20;;;;;;;;;;5045969;28;20486;-76
2022/12/14 08:34:21;;;;;;;28.30;16.08;;;;;;;;;;5047935;28;20033;-75
2022/12/14 08:37:06;;;;;;;29.55;17.45;;;;;;;;;;5048756;28;20023;-76
2022/12/14 08:39:51;;;;;;;28.25;17.25;;;;;;;;;;5033219;28;20021;-77
2022/12/14 08:42:36;;;;;;;29.35;16.65;;;;;;;;;;5047471;28;20407;-75
2022/12/14 08:45:22;;;;;;;31.38;18.02;;;;;;;;;;5049263;28;20029;-73
2022/12/14 08:48:07;;;;;;;30.70;17.85;;;;;;;;;;5047377;28;20031;-72
2022/12/14 08:50:52;;;;;;;29.25;16.85;;;;;;;;;;5048320;28;20476;-73
2022/12/14 08:53:39;;;;;;;28.33;17.33;;;;;;;;;;5046288;28;20024;-74
2022/12/14 08:56:25;;;;;;;33.28;17.42;;;;;;;;;;5047020;28;20028;-72
2022/12/14 08:59:10;;;;;;;34.17;16.90;;;;;;;;;;5047424;28;20232;-73
2022/12/14 09:01:55;;;;;;;27.45;16.17;;;;;;;;;;5046936;28;20059;-76
2022/12/14 09:04:41;;;;;;;29.67;17.17;;;;;;;;;;5044742;28;20040;-77
2022/12/14 09:07:26;;;;;;;29.40;16.60;;;;;;;;;;5042157;28;20032;-79
2022/12/14 09:10:12;;;;;;;30.95;17.65;;;;;;;;;;5045522;28;20025;-77
2022/12/14 09:12:57;;;;;;;27.67;17.08;;;;;;;;;;5047058;28;20036;-76
2022/12/14 09:15:43;;;;;;;26.95;15.75;;;;;;;;;;5046712;28;20108;-77
2022/12/14 09:18:28;;;;;;;28.20;17.50;;;;;;;;;;5044051;28;20035;-75
2022/12/14 09:21:14;;;;;;;27.63;16.25;;;;;;;;;;5039382;28;20650;-73
2022/12/14 09:24:00;;;;;;;29.60;17.02;;;;;;;;;;5046614;28;20384;-72
2022/12/14 09:26:46;;;;;;;29.17;16.95;;;;;;;;;;5046562;28;20116;-73
2022/12/14 09:29:31;;;;;;;27.35;16.77;;;;;;;;;;5031276;28;20661;-76
2022/12/14 09:32:16;;;;;;;34.65;17.88;;;;;;;;;;5031127;28;20020;-71
2022/12/14 09:35:01;;;;;;;30.63;17.00;;;;;;;;;;5046338;28;20381;-72
2022/12/14 09:37:46;;;;;;;32.83;17.33;;;;;;;;;;5035416;28;20027;-76
2022/12/14 09:40:32;;;;;;;30.60;17.50;;;;;;;;;;5046300;28;20387;-72
2022/12/14 09:43:41;;;;;;;31.08;19.25;;;;;;;;;;5032343;28;20039;-74
2022/12/14 09:46:46;;;;;;;33.95;16.63;;;;;;;;;;5059456;28;20048;-74
2022/12/14 09:49:31;;;;;;;30.98;17.88;;;;;;;;;;5059021;28;20487;-74
2022/12/14 09:52:22;;;;;;;34.60;19.52;;;;;;;;;;5038442;28;20316;-77
2022/12/14 09:55:28;;;;;;;32.45;17.00;;;;;;;;;;5043374;28;20120;-77
2022/12/14 09:58:16;;;;;;;32.78;18.67;;;;;;;;;;5043323;28;20028;-74
2022/12/14 10:01:23;;;;;;;33.80;18.85;;;;;;;;;;5045507;28;20560;-74
2022/12/14 10:04:29;;;;;;;31.13;18.40;;;;;;;;;;5046082;28;20103;-72
2022/12/14 10:07:21;;;;;;;30.77;18.83;;;;;;;;;;5034084;28;20027;-75
2022/12/14 10:10:22;;;;;;;27.85;17.95;;;;;;;;;;5045804;28;20084;-75
2022/12/14 10:13:17;;;;;;;31.30;18.23;;;;;;;;;;5044990;28;20395;-75
2022/12/14 10:16:03;;;;;;;30.77;18.08;;;;;;;;;;5043754;28;20032;-75
2022/12/14 10:18:54;;;;;;;29.20;17.83;;;;;;;;;;5044972;28;20086;-73
2022/12/14 10:22:03;;;;;;;34.42;18.85;;;;;;;;;;5031280;28;20048;-72
2022/12/14 10:24:50;;;;;;;29.27;17.55;;;;;;;;;;5051879;28;20347;-72
2022/12/14 10:27:37;;;;;;;31.38;18.33;;;;;;;;;;5044486;28;20025;-73
2022/12/14 10:30:22;;;;;;;35.83;18.92;;;;;;;;;;5047377;28;20025;-72
2022/12/14 10:33:21;;;;;;;34.90;18.80;;;;;;;;;;5034645;28;20099;-73
2022/12/14 10:36:27;;;;;;;29.73;17.47;;;;;;;;;;5035709;28;20079;-78
2022/12/14 10:39:19;;;;;;;30.23;18.42;;;;;;;;;;5047416;28;20024;-76
2022/12/14 10:42:33;;;;;;;31.02;18.58;;;;;;;;;;5037969;28;20056;-71
2022/12/14 10:45:34;;;;;;;34.88;19.65;;;;;;;;;;4963632;28;20098;-72
2022/12/14 10:48:22;;;;;;;34.97;18.42;;;;;;;;;;5048683;28;20106;-73
2022/12/14 10:51:16;;;;;;;32.45;18.67;;;;;;;;;;5035269;28;20032;-72
2022/12/14 10:54:09;;;;;;;32.15;20.02;;;;;;;;;;5050290;28;20025;-73
2022/12/14 10:56:54;;;;;;;32.67;19.95;;;;;;;;;;5058555;28;20320;-74
2022/12/14 10:59:39;;;;;;;36.28;21.23;;;;;;;;;;5049560;28;20549;-73
2022/12/14 11:02:27;;;;;;;34.17;20.73;;;;;;;;;;5049303;28;20048;-74
2022/12/14 11:05:35;;;;;;;34.00;19.80;;;;;;;;;;5068869;28;20051;-76
2022/12/14 11:08:56;;;;;;;36.30;20.35;;;;;;;;;;5068461;28;20067;-76
2022/12/14 11:11:43;;;;;;;31.40;19.88;;;;;;;;;;4970216;28;20113;-77
2022/12/14 11:14:29;;;;;;;34.35;20.75;;;;;;;;;;5050444;28;20028;-76
2022/12/14 11:17:28;;;;;;;34.42;20.23;;;;;;;;;;5051521;28;20025;-77
2022/12/14 11:20:14;;;;;;;;;;;;;;;;;;5048592;28;20491;-76
2022/12/14 11:23:17;;;;;;;43.60;21.23;;;;;;;;;;5051240;28;19917;-76
2022/12/14 11:26:03;;;;;;;29.67;18.13;;;;;;;;;;5046344;28;20058;-75
2022/12/14 11:28:50;;;;;;;33.75;20.77;;;;;;;;;;5062155;28;20066;-74
2022/12/14 11:31:36;;;;;;;38.15;20.05;;;;;;;;;;5050019;28;20028;-75
2022/12/14 11:34:25;;;;;;;32.50;20.15;;;;;;;;;;5049502;28;20163;-75
2022/12/14 11:37:10;;;;;;;35.75;20.85;;;;;;;;;;5034585;28;20021;-76
2022/12/14 11:40:00;;;;;;;32.00;19.52;;;;;;;;;;5048479;28;20032;-74
2022/12/14 11:42:46;;;;;;;;;;;;;;;;;;5047672;28;20082;-77
2022/12/14 11:45:32;;;;;;;36.65;20.98;;;;;;;;;;5047339;28;19909;-75
2022/12/14 11:48:21;;;;;;;35.90;19.88;;;;;;;;;;5047940;28;20025;-72
2022/12/14 11:51:07;;;;;;;;;;;;;;;;;;5051625;28;20036;-74
2022/12/14 11:54:02;;;;;;;33.45;20.92;;;;;;;;;;5034896;28;19917;-73
2022/12/14 11:56:54;;;;;;;38.08;21.55;;;;;;;;;;5033713;28;20028;-71
2022/12/14 11:59:44;;;;;;;39.50;22.33;;;;;;;;;;5052901;28;20456;-73
2022/12/14 12:02:32;;;;;;;36.65;22.20;;;;;;;;;;5051718;28;20080;-74
2022/12/14 12:05:19;;;;;;;38.50;22.58;;;;;;;;;;5034038;28;20442;-72
2022/12/14 12:08:13;;;;;;;35.45;21.65;;;;;;;;;;5051306;28;20103;-75
2022/12/14 12:11:01;;;;;;;38.92;23.63;;;;;;;;;;5044640;28;20486;-74
2022/12/14 12:13:58;;;;;;;35.75;21.30;;;;;;;;;;5049326;28;20067;-76
2022/12/14 12:16:43;;;;;;;34.72;21.83;;;;;;;;;;5045500;28;20465;-76
2022/12/14 12:19:36;;;;;;;37.13;22.15;;;;;;;;;;5048630;28;20111;-74
2022/12/14 12:22:21;;;;;;;37.75;22.25;;;;;;;;;;5048690;28;20495;-76
2022/12/14 12:25:06;;;;;;;36.72;21.52;;;;;;;;;;5046921;28;20025;-72
2022/12/14 12:27:58;;;;;;;37.22;21.50;;;;;;;;;;5037899;28;20430;-74
2022/12/14 12:30:46;;;;;;;34.65;22.00;;;;;;;;;;5051041;28;20029;-75
2022/12/14 12:33:41;;;;;;;35.83;20.88;;;;;;;;;;5056428;28;20492;-77
2022/12/14 12:36:26;;;;;;;40.28;23.05;;;;;;;;;;5052557;28;20024;-76
2022/12/14 12:39:14;;;;;;;37.95;22.08;;;;;;;;;;5039236;28;20032;-74
2022/12/14 12:42:05;;;;;;;36.70;21.17;;;;;;;;;;5055727;28;20040;-74
2022/12/14 12:45:06;;;;;;;36.63;21.98;;;;;;;;;;5050292;28;20017;-77
2022/12/14 12:48:04;;;;;;;37.72;21.58;;;;;;;;;;5055321;28;20052;-77
2022/12/14 12:50:56;;;;;;;34.53;22.08;;;;;;;;;;5054370;28;20163;-76
2022/12/14 12:53:43;;;;;;;37.22;22.70;;;;;;;;;;5045310;28;20032;-78
2022/12/14 12:56:38;;;;;;;39.35;24.40;;;;;;;;;;5046164;28;20442;-76
2022/12/14 12:59:35;;;;;;;40.17;23.50;;;;;;;;;;5061150;28;20021;-73
2022/12/14 13:02:34;;;;;;;39.17;24.20;;;;;;;;;;5048648;28;20049;-73
2022/12/14 13:05:21;;;;;;;39.10;24.35;;;;;;;;;;5058974;28;20028;-74
2022/12/14 13:08:12;;;;;;;35.17;24.00;;;;;;;;;;5035115;28;20064;-76
2022/12/14 13:10:59;;;;;;;41.88;23.77;;;;;;;;;;5053543;28;20039;-77
2022/12/14 13:13:47;;;;;;;35.55;22.58;;;;;;;;;;5048137;28;20104;-75
2022/12/14 13:16:35;;;;;;;37.60;23.50;;;;;;;;;;5043225;28;20046;-74
2022/12/14 13:19:28;;;;;;;39.65;24.02;;;;;;;;;;5034886;28;20016;-76
2022/12/14 13:22:24;;;;;;;39.58;23.83;;;;;;;;;;5039181;28;20492;-76
2022/12/14 13:25:15;;;;;;;44.83;25.00;;;;;;;;;;5035992;28;20171;-76
2022/12/14 13:28:26;;;;;;;41.58;24.42;;;;;;;;;;5039274;28;20029;-75
2022/12/14 13:31:17;;;;;;;39.05;21.73;;;;;;;;;;5038317;28;20086;-75
2022/12/14 13:34:02;;;;;;;39.92;24.05;;;;;;;;;;5046836;28;20115;-79
2022/12/14 13:37:20;;;;;;;35.95;22.52;;;;;;;;;;5067578;28;20028;-81
2022/12/14 13:40:38;;;;;;;38.60;22.73;;;;;;;;;;5007860;28;20068;-78
2022/12/14 13:43:23;;;;;;;42.03;23.08;;;;;;;;;;5009062;28;20487;-75
2022/12/14 13:46:22;;;;;;;41.50;24.42;;;;;;;;;;5045516;28;20116;-76
2022/12/14 13:49:16;;;;;;;40.55;22.10;;;;;;;;;;5056058;28;20033;-79
2022/12/14 13:52:01;;;;;;;41.65;24.52;;;;;;;;;;5034214;28;20029;-78
2022/12/14 13:54:47;;;;;;;35.80;22.92;;;;;;;;;;5046562;28;20106;-77
2022/12/14 13:57:32;;;;;;;40.40;23.65;;;;;;;;;;5032391;28;20029;-72
2022/12/14 14:00:36;;;;;;;40.55;21.77;;;;;;;;;;5045594;28;20044;-79
2022/12/14 14:03:33;;;;;;;41.25;23.02;;;;;;;;;;5059746;28;20109;-79
2022/12/14 14:06:42;;;;;;;38.15;22.60;;;;;;;;;;5049821;28;20481;-81
2022/12/14 14:09:27;;;;;;;42.22;23.20;;;;;;;;;;4982985;28;20030;-77
2022/12/14 14:12:25;;;;;;;43.60;24.00;;;;;;;;;;4989040;28;20041;-76
2022/12/14 14:15:17;;;;;;;41.60;23.25;;;;;;;;;;4975438;28;20026;-74
2022/12/14 14:18:13;;;;;;;43.85;24.33;;;;;;;;;;4973352;28;20441;-70
2022/12/14 14:21:21;;;;;;;38.70;23.15;;;;;;;;;;4973998;28;20482;-73
2022/12/14 14:24:15;;;;;;;42.75;25.05;;;;;;;;;;4958420;28;20030;-69
2022/12/14 14:27:06;;;;;;;40.53;23.27;;;;;;;;;;4966947;28;20077;-70
2022/12/14 14:29:53;;;;;;;45.45;24.42;;;;;;;;;;4975233;28;20018;-70
2022/12/14 14:32:39;;;;;;;37.78;23.88;;;;;;;;;;4958669;28;20045;-73
2022/12/14 14:35:24;;;;;;;37.47;22.33;;;;;;;;;;4989509;28;20303;-72
2022/12/14 14:38:22;;;;;;;38.47;22.23;;;;;;;;;;4961618;28;20113;-77
2022/12/14 14:41:10;;;;;;;39.13;23.23;;;;;;;;;;4988504;28;20058;-74
2022/12/14 14:43:58;;;;;;;37.65;21.75;;;;;;;;;;4974446;28;20065;-76
2022/12/14 14:46:46;;;;;;;41.03;22.80;;;;;;;;;;5024453;28;20037;-77
2022/12/14 14:49:40;;;;;;;34.83;21.55;;;;;;;;;;5049874;28;20067;-76
2022/12/14 14:52:58;;;;;;;43.15;25.13;;;;;;;;;;5034195;28;20112;-76
2022/12/14 14:55:49;;;;;;;39.15;23.02;;;;;;;;;;5048137;28;20036;-78
2022/12/14 14:58:35;;;;;;;41.63;26.00;;;;;;;;;;5049515;28;20379;-78
2022/12/14 15:01:23;;;;;;;40.30;23.90;;;;;;;;;;5037009;28;20067;-78
2022/12/14 15:04:13;;;;;;;37.85;20.98;;;;;;;;;;5055589;28;20041;-78
2022/12/14 15:07:04;;;;;;;41.67;23.25;;;;;;;;;;5054301;28;20052;-77
2022/12/14 15:09:51;;;;;;;34.55;21.50;;;;;;;;;;5054989;28;20024;-73
2022/12/14 15:12:40;;;;;;;41.90;24.00;;;;;;;;;;5048641;28;20331;-71
2022/12/14 15:15:36;;;;;;;35.97;20.63;;;;;;;;;;5055802;28;20024;-71
2022/12/14 15:18:25;;;;;;;33.50;19.98;;;;;;;;;;5054559;28;20475;-72
2022/12/14 15:21:12;;;;;;;35.00;20.60;;;;;;;;;;5058783;28;20036;-71
2022/12/14 15:23:57;;;;;;;28.08;16.42;;;;;;;;;;5053536;28;20079;-69
2022/12/14 15:26:42;;;;;;;32.35;18.67;;;;;;;;;;5056317;28;20025;-69
2022/12/14 15:29:28;;;;;;;33.90;18.98;;;;;;;;;;5055066;28;20028;-74
2022/12/14 15:32:15;;;;;;;33.10;19.45;;;;;;;;;;5052688;28;20634;-75
2022/12/14 15:35:01;;;;;;;27.08;17.13;;;;;;;;;;5054153;28;20103;-76
2022/12/14 15:37:47;;;;;;;28.58;16.27;;;;;;;;;;5073399;28;20020;-74
2022/12/14 15:40:34;;;;;;;26.25;15.73;;;;;;;;;;5053203;28;20032;-77
2022/12/14 15:43:20;;;;;;;26.63;15.77;;;;;;;;;;5058847;28;20043;-75
2022/12/14 15:46:13;;;;;;;26.23;15.98;;;;;;;;;;5056926;28;20503;-75
2022/12/14 15:49:03;;;;;;;23.77;15.15;;;;;;;;;;5053598;28;20024;-75
2022/12/14 15:51:48;;;;;;;;;;;;;;;;;;5057714;28;20171;-77
2022/12/14 15:54:33;;;;;;;24.15;14.90;;;;;;;;;;5041130;28;19948;-74
2022/12/14 15:57:18;;;;;;;25.60;15.70;;;;;;;;;;5059829;28;20028;-76
2022/12/14 16:00:04;;;;;;;22.10;13.40;;;;;;;;;;5050708;28;20028;-76
2022/12/14 16:02:50;;;;;;;26.02;15.85;;;;;;;;;;5057323;28;20472;-76
2022/12/14 16:05:35;;;;;;;25.80;15.23;;;;;;;;;;5040290;28;20055;-75
2022/12/14 16:08:20;;;;;;;28.30;16.13;;;;;;;;;;5044686;28;20027;-81
2022/12/14 16:11:10;;;;;;;26.33;16.15;;;;;;;;;;5054115;28;20475;-82
2022/12/14 16:13:56;;;;;;;30.60;15.70;;;;;;;;;;5054023;28;20356;-80
2022/12/14 16:16:42;;;;;;;26.98;16.95;;;;;;;;;;5062840;28;20311;-81
2022/12/14 16:19:30;;;;;;;29.10;17.33;;;;;;;;;;5056889;28;20028;-78
2022/12/14 16:22:20;;;;;;;31.58;16.75;;;;;;;;;;5052447;28;20611;-80
2022/12/14 16:25:08;;;;;;;29.08;17.13;;;;;;;;;;5053000;28;20115;-71
2022/12/14 16:27:54;;;;;;;28.10;17.30;;;;;;;;;;5052866;28;20616;-71
2022/12/14 16:30:50;;;;;;;29.38;18.05;;;;;;;;;;5044259;28;20115;-73
2022/12/14 16:33:37;;;;;;;28.48;16.67;;;;;;;;;;5053895;28;20028;-75
2022/12/14 16:36:26;;;;;;;29.55;17.58;;;;;;;;;;5062829;28;20483;-76
2022/12/14 16:39:19;;;;;;;28.77;16.95;;;;;;;;;;5054812;28;20074;-74
2022/12/14 16:42:06;;;;;;;30.17;17.02;;;;;;;;;;5051613;28;20455;-72
2022/12/14 16:44:54;;;;;;;31.15;17.95;;;;;;;;;;5051726;28;20028;-74